Time;durP1;ratioP1;P1;durP2;ratioP2;P2;SDS_P1;SDS_P2;PMS_P1;PMS_P2;Temp;Humidity;BMP_temperature;BMP_pressure;BME280_temperature;BME280_humidity;BME280_pressure;Samples;Min_cycle;Max_cycle;Signal;HPM_P1;HPM_P2
2023/07/28 00:00:37;;;;;;;0.00;0.00;;;;;;;;;;1744247;28;20611;-78
2023/07/28 00:01:28;;;;;;;0.00;0.00;;;;;;;;;;1745508;28;20660;-77
2023/07/28 00:02:20;;;;;;;0.00;0.00;;;;;;;;;;1745907;28;20229;-78
2023/07/28 00:03:11;;;;;;;0.00;0.00;;;;;;;;;;1743732;28;20206;-78
2023/07/28 00:04:06;;;;;;;0.00;0.00;;;;;;;;;;1745794;28;20634;-78
2023/07/28 00:04:59;;;;;;;0.00;0.00;;;;;;;;;;1745571;28;20627;-78
2023/07/28 00:05:50;;;;;;;0.00;0.00;;;;;;;;;;1744454;28;20245;-78
2023/07/28 00:06:41;;;;;;;0.00;0.00;;;;;;;;;;1745495;28;20589;-77
2023/07/28 00:07:35;;;;;;;0.00;0.00;;;;;;;;;;1745588;28;20195;-77
2023/07/28 00:08:26;;;;;;;0.00;0.00;;;;;;;;;;1745436;28;20206;-77
2023/07/28 00:09:17;;;;;;;0.00;0.00;;;;;;;;;;1745863;28;20494;-78
2023/07/28 00:10:09;;;;;;;0.00;0.00;;;;;;;;;;1746083;28;20202;-78
2023/07/28 00:11:00;;;;;;;0.00;0.00;;;;;;;;;;1744179;28;20350;-79
2023/07/28 00:11:51;;;;;;;0.00;0.00;;;;;;;;;;1745499;28;20237;-78
2023/07/28 00:12:43;;;;;;;0.00;0.00;;;;;;;;;;1745657;28;20213;-78
2023/07/28 00:13:34;;;;;;;0.00;0.00;;;;;;;;;;1745298;28;20317;-78
2023/07/28 00:14:27;;;;;;;0.00;0.00;;;;;;;;;;1746109;28;20232;-78
2023/07/28 00:15:18;;;;;;;0.00;0.00;;;;;;;;;;1743818;28;20213;-79
2023/07/28 00:16:10;;;;;;;0.00;0.00;;;;;;;;;;1745739;28;20524;-77
2023/07/28 00:17:02;;;;;;;0.00;0.00;;;;;;;;;;1745707;28;20202;-77
2023/07/28 00:17:53;;;;;;;0.00;0.00;;;;;;;;;;1739923;28;20564;-78
2023/07/28 00:18:44;;;;;;;0.00;0.00;;;;;;;;;;1745695;28;20259;-78
2023/07/28 00:19:36;;;;;;;0.00;0.00;;;;;;;;;;1745732;28;20194;-78
2023/07/28 00:20:28;;;;;;;0.00;0.00;;;;;;;;;;1745937;28;20599;-78
2023/07/28 00:21:19;;;;;;;0.00;0.00;;;;;;;;;;1751080;28;20209;-78
2023/07/28 00:22:11;;;;;;;0.00;0.00;;;;;;;;;;1749965;28;20259;-78
2023/07/28 00:23:02;;;;;;;0.00;0.00;;;;;;;;;;1750885;28;20296;-78
2023/07/28 00:23:54;;;;;;;0.00;0.00;;;;;;;;;;1750227;28;20203;-77
2023/07/28 00:24:45;;;;;;;0.00;0.00;;;;;;;;;;1750131;28;20213;-78
2023/07/28 00:25:36;;;;;;;0.00;0.00;;;;;;;;;;1749769;28;20575;-78
2023/07/28 00:26:28;;;;;;;0.00;0.00;;;;;;;;;;1750605;28;20221;-78
2023/07/28 00:27:19;;;;;;;0.00;0.00;;;;;;;;;;1748816;28;20289;-78
2023/07/28 00:28:11;;;;;;;0.00;0.00;;;;;;;;;;1750708;28;20564;-78
2023/07/28 00:29:06;;;;;;;0.00;0.00;;;;;;;;;;1752021;28;20313;-78
2023/07/28 00:29:57;;;;;;;0.00;0.00;;;;;;;;;;1748959;28;20263;-78
2023/07/28 00:30:50;;;;;;;0.00;0.00;;;;;;;;;;1750007;28;20221;-78
2023/07/28 00:31:42;;;;;;;0.00;0.00;;;;;;;;;;1752250;28;20290;-78
2023/07/28 00:32:33;;;;;;;0.00;0.00;;;;;;;;;;1754781;28;20671;-78
2023/07/28 00:33:25;;;;;;;0.00;0.00;;;;;;;;;;1751560;28;21089;-78
2023/07/28 00:34:16;;;;;;;0.00;0.00;;;;;;;;;;1751255;28;20299;-78
2023/07/28 00:35:09;;;;;;;0.00;0.00;;;;;;;;;;1749720;28;20209;-77
2023/07/28 00:36:00;;;;;;;0.00;0.00;;;;;;;;;;1751108;28;20261;-77
2023/07/28 00:36:52;;;;;;;0.00;0.00;;;;;;;;;;1749474;28;20689;-78
2023/07/28 00:37:43;;;;;;;0.00;0.00;;;;;;;;;;1751187;28;20670;-78
2023/07/28 00:38:34;;;;;;;0.00;0.00;;;;;;;;;;1747579;28;20568;-78
2023/07/28 00:39:26;;;;;;;0.00;0.00;;;;;;;;;;1751561;28;20722;-78
2023/07/28 00:40:17;;;;;;;0.00;0.00;;;;;;;;;;1744827;28;20333;-79
2023/07/28 00:41:09;;;;;;;0.00;0.00;;;;;;;;;;1753138;28;20239;-78
2023/07/28 00:42:00;;;;;;;0.00;0.00;;;;;;;;;;1749679;28;20628;-78
2023/07/28 00:42:52;;;;;;;0.00;0.00;;;;;;;;;;1752809;28;20202;-78
2023/07/28 00:43:43;;;;;;;0.00;0.00;;;;;;;;;;1748647;28;20301;-78
2023/07/28 00:44:35;;;;;;;0.00;0.00;;;;;;;;;;1753312;28;20225;-78
2023/07/28 00:45:27;;;;;;;0.00;0.00;;;;;;;;;;1751249;28;20316;-78
2023/07/28 00:46:18;;;;;;;0.00;0.00;;;;;;;;;;1753106;28;20590;-78
2023/07/28 00:47:11;;;;;;;0.00;0.00;;;;;;;;;;1749505;28;20289;-78
2023/07/28 00:48:02;;;;;;;0.00;0.00;;;;;;;;;;1752019;28;20225;-78
2023/07/28 00:48:55;;;;;;;0.00;0.00;;;;;;;;;;1750027;28;20678;-78
2023/07/28 00:49:46;;;;;;;0.00;0.00;;;;;;;;;;1751117;28;20229;-78
2023/07/28 00:50:37;;;;;;;0.00;0.00;;;;;;;;;;1752048;28;20271;-78
2023/07/28 00:51:29;;;;;;;0.00;0.00;;;;;;;;;;1751450;28;20269;-78
2023/07/28 00:52:20;;;;;;;0.00;0.00;;;;;;;;;;1751615;28;20290;-78
2023/07/28 00:53:11;;;;;;;0.00;0.00;;;;;;;;;;1750757;28;20285;-78
2023/07/28 00:54:05;;;;;;;0.00;0.00;;;;;;;;;;1751857;28;20194;-78
2023/07/28 00:54:56;;;;;;;0.00;0.00;;;;;;;;;;1751297;28;20670;-78
2023/07/28 00:55:48;;;;;;;0.00;0.00;;;;;;;;;;1752027;28;20225;-78
2023/07/28 00:56:40;;;;;;;0.00;0.00;;;;;;;;;;1750690;28;20270;-78
2023/07/28 00:57:31;;;;;;;0.00;0.00;;;;;;;;;;1751149;28;20296;-78
2023/07/28 00:58:22;;;;;;;0.00;0.00;;;;;;;;;;1750382;28;20209;-78
2023/07/28 00:59:14;;;;;;;0.00;0.00;;;;;;;;;;1750819;28;20228;-78
2023/07/28 01:00:06;;;;;;;0.00;0.00;;;;;;;;;;1751425;28;20278;-78
2023/07/28 01:00:57;;;;;;;0.00;0.00;;;;;;;;;;1750741;28;20229;-78
2023/07/28 01:01:49;;;;;;;0.00;0.00;;;;;;;;;;1746412;28;20266;-78
2023/07/28 01:02:41;;;;;;;0.00;0.00;;;;;;;;;;1750662;28;20599;-78
2023/07/28 01:03:32;;;;;;;0.00;0.00;;;;;;;;;;1748319;28;20201;-78
2023/07/28 01:04:25;;;;;;;0.00;0.00;;;;;;;;;;1751304;28;20287;-78
2023/07/28 01:05:16;;;;;;;0.00;0.00;;;;;;;;;;1745997;28;20607;-78
2023/07/28 01:06:11;;;;;;;0.00;0.00;;;;;;;;;;1752422;28;20677;-78
2023/07/28 01:07:06;;;;;;;0.00;0.00;;;;;;;;;;1749348;28;20190;-78
2023/07/28 01:07:59;;;;;;;0.00;0.00;;;;;;;;;;1750915;28;20300;-78
2023/07/28 01:08:55;;;;;;;0.00;0.00;;;;;;;;;;1748630;28;20592;-78
2023/07/28 01:09:51;;;;;;;0.00;0.00;;;;;;;;;;1749821;28;20225;-78
2023/07/28 01:10:43;;;;;;;0.00;0.00;;;;;;;;;;1749709;28;20775;-78
2023/07/28 01:11:34;;;;;;;0.00;0.00;;;;;;;;;;1749662;28;20648;-78
2023/07/28 01:12:26;;;;;;;0.00;0.00;;;;;;;;;;1749116;28;20314;-78
2023/07/28 01:13:17;;;;;;;0.00;0.00;;;;;;;;;;1751436;28;20237;-78
2023/07/28 01:14:08;;;;;;;0.00;0.00;;;;;;;;;;1754467;28;20194;-78
2023/07/28 01:15:00;;;;;;;0.00;0.00;;;;;;;;;;1753062;28;20212;-78
2023/07/28 01:15:51;;;;;;;0.00;0.00;;;;;;;;;;1745896;28;20329;-78
2023/07/28 01:16:42;;;;;;;0.00;0.00;;;;;;;;;;1746525;28;20638;-78
2023/07/28 01:17:34;;;;;;;0.00;0.00;;;;;;;;;;1746971;28;20198;-78
2023/07/28 01:18:27;;;;;;;0.00;0.00;;;;;;;;;;1746456;28;20304;-78
2023/07/28 01:19:18;;;;;;;0.00;0.00;;;;;;;;;;1744751;28;20282;-78
2023/07/28 01:20:11;;;;;;;0.00;0.00;;;;;;;;;;1746748;28;20271;-78
2023/07/28 01:21:05;;;;;;;0.00;0.00;;;;;;;;;;1744935;28;20344;-78
2023/07/28 01:22:00;;;;;;;0.00;0.00;;;;;;;;;;1746350;28;20221;-78
2023/07/28 01:23:03;;;;;;;0.00;0.00;;;;;;;;;;1746836;28;20650;-78
2023/07/28 01:24:00;;;;;;;0.00;0.00;;;;;;;;;;1746688;28;20339;-78
2023/07/28 01:24:53;;;;;;;0.00;0.00;;;;;;;;;;1746529;28;20205;-78
2023/07/28 01:25:50;;;;;;;0.00;0.00;;;;;;;;;;1745253;28;20388;-78
2023/07/28 01:26:44;;;;;;;0.00;0.00;;;;;;;;;;1744589;28;20660;-78
2023/07/28 01:27:35;;;;;;;0.00;0.00;;;;;;;;;;1744578;28;20233;-78
2023/07/28 01:28:27;;;;;;;0.00;0.00;;;;;;;;;;1743821;28;20549;-78
2023/07/28 01:29:19;;;;;;;0.00;0.00;;;;;;;;;;1746934;28;20315;-77
2023/07/28 01:30:11;;;;;;;0.00;0.00;;;;;;;;;;1746068;28;20201;-77
2023/07/28 01:31:03;;;;;;;0.00;0.00;;;;;;;;;;1745353;28;20808;-77
2023/07/28 01:31:54;;;;;;;0.00;0.00;;;;;;;;;;1745392;28;20310;-78
2023/07/28 01:32:46;;;;;;;0.00;0.00;;;;;;;;;;1745511;28;20407;-78
2023/07/28 01:33:37;;;;;;;0.00;0.00;;;;;;;;;;1743859;28;20244;-78
2023/07/28 01:34:29;;;;;;;0.00;0.00;;;;;;;;;;1746714;28;20202;-78
2023/07/28 01:35:20;;;;;;;0.00;0.00;;;;;;;;;;1745549;28;20210;-78
2023/07/28 01:36:12;;;;;;;0.00;0.00;;;;;;;;;;1747363;28;20208;-78
2023/07/28 01:37:03;;;;;;;0.00;0.00;;;;;;;;;;1747411;28;20293;-78
2023/07/28 01:37:55;;;;;;;0.00;0.00;;;;;;;;;;1746019;28;20251;-78
2023/07/28 01:38:47;;;;;;;0.00;0.00;;;;;;;;;;1746024;28;20198;-78
2023/07/28 01:39:38;;;;;;;0.00;0.00;;;;;;;;;;1748098;28;20271;-78
2023/07/28 01:40:29;;;;;;;0.00;0.00;;;;;;;;;;1744993;28;20210;-78
2023/07/28 01:41:21;;;;;;;0.00;0.00;;;;;;;;;;1746516;28;20536;-78
2023/07/28 01:42:13;;;;;;;0.00;0.00;;;;;;;;;;1746742;28;20359;-78
2023/07/28 01:43:04;;;;;;;0.00;0.00;;;;;;;;;;1746520;28;20278;-78
2023/07/28 01:43:56;;;;;;;0.00;0.00;;;;;;;;;;1746792;28;20198;-78
2023/07/28 01:44:47;;;;;;;0.00;0.00;;;;;;;;;;1746600;28;21444;-78
2023/07/28 01:45:38;;;;;;;0.00;0.00;;;;;;;;;;1746752;28;20253;-78
2023/07/28 01:46:30;;;;;;;0.00;0.00;;;;;;;;;;1747219;28;20217;-78
2023/07/28 01:47:21;;;;;;;0.00;0.00;;;;;;;;;;1752662;28;20328;-78
2023/07/28 01:48:13;;;;;;;0.00;0.00;;;;;;;;;;1751075;28;20211;-78
2023/07/28 01:49:04;;;;;;;0.00;0.00;;;;;;;;;;1753641;28;20283;-78
2023/07/28 01:49:56;;;;;;;0.00;0.00;;;;;;;;;;1751868;28;20194;-78
2023/07/28 01:50:48;;;;;;;0.00;0.00;;;;;;;;;;1749470;28;20225;-77
2023/07/28 01:51:39;;;;;;;0.00;0.00;;;;;;;;;;1750780;28;20317;-77
2023/07/28 01:52:31;;;;;;;0.00;0.00;;;;;;;;;;1753925;28;20198;-78
2023/07/28 01:53:22;;;;;;;0.00;0.00;;;;;;;;;;1751066;28;20671;-78
2023/07/28 01:54:13;;;;;;;0.00;0.00;;;;;;;;;;1753866;28;20212;-78
2023/07/28 01:55:06;;;;;;;0.00;0.00;;;;;;;;;;1754122;28;20502;-78
2023/07/28 01:55:57;;;;;;;0.00;0.00;;;;;;;;;;1746312;28;20280;-78
2023/07/28 01:56:49;;;;;;;0.00;0.00;;;;;;;;;;1747837;28;20194;-78
2023/07/28 01:57:50;;;;;;;0.00;0.00;;;;;;;;;;1748172;28;20289;-78
2023/07/28 01:58:42;;;;;;;0.00;0.00;;;;;;;;;;1747635;28;20199;-78
2023/07/28 01:59:33;;;;;;;0.00;0.00;;;;;;;;;;1748011;28;20360;-78
2023/07/28 02:00:25;;;;;;;0.00;0.00;;;;;;;;;;1743900;28;20263;-79
2023/07/28 02:01:17;;;;;;;0.00;0.00;;;;;;;;;;1740606;28;20638;-79
2023/07/28 02:02:08;;;;;;;0.00;0.00;;;;;;;;;;1746544;28;20355;-78
2023/07/28 02:03:01;;;;;;;0.00;0.00;;;;;;;;;;1746637;28;20199;-78
2023/07/28 02:03:53;;;;;;;0.00;0.00;;;;;;;;;;1745999;28;20515;-78
2023/07/28 02:04:44;;;;;;;0.00;0.00;;;;;;;;;;1744770;28;20656;-78
2023/07/28 02:05:35;;;;;;;0.00;0.00;;;;;;;;;;1747837;28;20225;-78
2023/07/28 02:06:27;;;;;;;0.00;0.00;;;;;;;;;;1754075;28;20185;-78
2023/07/28 02:07:18;;;;;;;0.00;0.00;;;;;;;;;;1753892;28;20300;-78
2023/07/28 02:08:09;;;;;;;0.00;0.00;;;;;;;;;;1754025;28;20615;-78
2023/07/28 02:09:01;;;;;;;0.00;0.00;;;;;;;;;;1752983;28;20283;-78
2023/07/28 02:09:53;;;;;;;0.00;0.00;;;;;;;;;;1753677;28;20875;-78
2023/07/28 02:10:45;;;;;;;0.00;0.00;;;;;;;;;;1749767;28;20253;-78
2023/07/28 02:11:37;;;;;;;0.00;0.00;;;;;;;;;;1752537;28;20651;-78
2023/07/28 02:12:28;;;;;;;0.00;0.00;;;;;;;;;;1753441;28;20293;-78
2023/07/28 02:13:20;;;;;;;0.00;0.00;;;;;;;;;;1750454;28;20614;-78
2023/07/28 02:14:12;;;;;;;0.00;0.00;;;;;;;;;;1751735;28;20251;-79
2023/07/28 02:15:04;;;;;;;0.00;0.00;;;;;;;;;;1749231;28;20293;-78
2023/07/28 02:15:56;;;;;;;0.00;0.00;;;;;;;;;;1746011;28;20650;-78
2023/07/28 02:16:47;;;;;;;0.00;0.00;;;;;;;;;;1747565;28;20332;-78
2023/07/28 02:17:38;;;;;;;0.00;0.00;;;;;;;;;;1748159;28;20199;-78
2023/07/28 02:18:30;;;;;;;0.00;0.00;;;;;;;;;;1747558;28;20621;-78
2023/07/28 02:19:21;;;;;;;0.00;0.00;;;;;;;;;;1748466;28;20688;-78
2023/07/28 02:20:12;;;;;;;0.00;0.00;;;;;;;;;;1748176;28;20233;-80
2023/07/28 02:21:04;;;;;;;0.00;0.00;;;;;;;;;;1753733;28;20229;-79
2023/07/28 02:21:55;;;;;;;0.00;0.00;;;;;;;;;;1755036;28;20292;-79
2023/07/28 02:22:47;;;;;;;0.00;0.00;;;;;;;;;;1754856;28;20543;-79
2023/07/28 02:23:39;;;;;;;0.00;0.00;;;;;;;;;;1753641;28;20201;-79
2023/07/28 02:24:30;;;;;;;0.00;0.00;;;;;;;;;;1756381;28;20624;-79
2023/07/28 02:25:21;;;;;;;0.00;0.00;;;;;;;;;;1744950;28;20202;-80
2023/07/28 02:26:13;;;;;;;0.00;0.00;;;;;;;;;;1746555;28;20209;-79
2023/07/28 02:27:04;;;;;;;0.00;0.00;;;;;;;;;;1745443;28;20255;-79
2023/07/28 02:27:55;;;;;;;0.00;0.00;;;;;;;;;;1746797;28;20659;-79
2023/07/28 02:28:49;;;;;;;0.00;0.00;;;;;;;;;;1746323;28;20654;-79
2023/07/28 02:29:41;;;;;;;0.00;0.00;;;;;;;;;;1746634;28;20722;-80
2023/07/28 02:30:33;;;;;;;0.00;0.00;;;;;;;;;;1745119;28;20698;-79
2023/07/28 02:31:24;;;;;;;0.00;0.00;;;;;;;;;;1749158;28;20300;-79
2023/07/28 02:32:15;;;;;;;0.00;0.00;;;;;;;;;;1749288;28;20308;-79
2023/07/28 02:33:08;;;;;;;0.00;0.00;;;;;;;;;;1749120;28;20209;-79
2023/07/28 02:33:59;;;;;;;0.00;0.00;;;;;;;;;;1748190;28;20486;-79
2023/07/28 02:34:51;;;;;;;0.00;0.00;;;;;;;;;;1748161;28;20206;-78
2023/07/28 02:35:42;;;;;;;0.00;0.00;;;;;;;;;;1745628;28;20281;-78
2023/07/28 02:36:34;;;;;;;0.00;0.00;;;;;;;;;;1746255;28;20195;-79
2023/07/28 02:37:26;;;;;;;0.00;0.00;;;;;;;;;;1746891;28;20202;-79
2023/07/28 02:38:18;;;;;;;0.00;0.00;;;;;;;;;;1746445;28;20191;-79
2023/07/28 02:39:09;;;;;;;0.00;0.00;;;;;;;;;;1744940;28;20965;-79
2023/07/28 02:40:00;;;;;;;0.00;0.00;;;;;;;;;;1744465;28;20214;-79
2023/07/28 02:40:52;;;;;;;0.00;0.00;;;;;;;;;;1746162;28;20218;-78
2023/07/28 02:41:43;;;;;;;0.00;0.00;;;;;;;;;;1748414;28;20241;-78
2023/07/28 02:42:35;;;;;;;0.00;0.00;;;;;;;;;;1748868;28;20269;-78
2023/07/28 02:43:27;;;;;;;0.00;0.00;;;;;;;;;;1749582;28;20217;-78
2023/07/28 02:44:19;;;;;;;0.00;0.00;;;;;;;;;;1748479;28;20220;-78
2023/07/28 02:45:11;;;;;;;0.00;0.00;;;;;;;;;;1746947;28;20858;-78
2023/07/28 02:46:03;;;;;;;0.00;0.00;;;;;;;;;;1745677;28;20273;-78
2023/07/28 02:46:54;;;;;;;0.00;0.00;;;;;;;;;;1745394;28;20191;-78
2023/07/28 02:47:46;;;;;;;0.00;0.00;;;;;;;;;;1746573;28;20213;-79
2023/07/28 02:48:37;;;;;;;0.00;0.00;;;;;;;;;;1746162;28;20220;-79
2023/07/28 02:49:28;;;;;;;0.00;0.00;;;;;;;;;;1746831;28;20206;-79
2023/07/28 02:50:21;;;;;;;0.00;0.00;;;;;;;;;;1745455;28;20206;-79
2023/07/28 02:51:12;;;;;;;0.00;0.00;;;;;;;;;;1749203;28;20206;-79
2023/07/28 02:52:03;;;;;;;0.00;0.00;;;;;;;;;;1747491;28;20279;-78
2023/07/28 02:52:55;;;;;;;0.00;0.00;;;;;;;;;;1747375;28;20237;-79
2023/07/28 02:53:46;;;;;;;0.00;0.00;;;;;;;;;;1746536;28;20293;-78
2023/07/28 02:54:37;;;;;;;0.00;0.00;;;;;;;;;;1747416;28;20232;-78
2023/07/28 02:55:29;;;;;;;0.00;0.00;;;;;;;;;;1747973;28;20539;-78
2023/07/28 02:56:21;;;;;;;0.00;0.00;;;;;;;;;;1754202;28;20679;-78
2023/07/28 02:57:13;;;;;;;0.00;0.00;;;;;;;;;;1754332;28;20201;-78
2023/07/28 02:58:04;;;;;;;0.00;0.00;;;;;;;;;;1753488;28;20201;-78
2023/07/28 02:58:55;;;;;;;0.00;0.00;;;;;;;;;;1754061;28;20327;-78
2023/07/28 02:59:49;;;;;;;0.00;0.00;;;;;;;;;;1753251;28;20209;-78
2023/07/28 03:00:40;;;;;;;0.00;0.00;;;;;;;;;;1751564;28;20257;-77
2023/07/28 03:01:33;;;;;;;0.00;0.00;;;;;;;;;;1752908;28;20245;-79
2023/07/28 03:02:24;;;;;;;0.00;0.00;;;;;;;;;;1753171;28;20682;-78
2023/07/28 03:03:16;;;;;;;0.00;0.00;;;;;;;;;;1751784;28;20205;-78
2023/07/28 03:04:07;;;;;;;0.00;0.00;;;;;;;;;;1753394;28;20297;-79
2023/07/28 03:04:59;;;;;;;0.00;0.00;;;;;;;;;;1751171;28;20303;-79
2023/07/28 03:05:52;;;;;;;0.00;0.00;;;;;;;;;;1752682;28;20249;-79
2023/07/28 03:06:43;;;;;;;0.00;0.00;;;;;;;;;;1754202;28;20294;-78
2023/07/28 03:07:35;;;;;;;0.00;0.00;;;;;;;;;;1755273;28;20197;-79
2023/07/28 03:08:26;;;;;;;0.00;0.00;;;;;;;;;;1751377;28;20201;-78
2023/07/28 03:09:17;;;;;;;0.00;0.00;;;;;;;;;;1747896;28;20271;-78
2023/07/28 03:10:09;;;;;;;0.00;0.00;;;;;;;;;;1751712;28;20289;-78
2023/07/28 03:11:02;;;;;;;0.00;0.00;;;;;;;;;;1741508;28;20329;-79
2023/07/28 03:11:54;;;;;;;0.00;0.00;;;;;;;;;;1745823;28;20206;-79
2023/07/28 03:12:45;;;;;;;0.00;0.00;;;;;;;;;;1746054;28;20324;-79
2023/07/28 03:13:36;;;;;;;0.00;0.00;;;;;;;;;;1746112;28;20803;-80
2023/07/28 03:14:28;;;;;;;0.00;0.00;;;;;;;;;;1746861;28;20198;-80
2023/07/28 03:15:22;;;;;;;0.00;0.00;;;;;;;;;;1745104;28;20202;-79
2023/07/28 03:16:13;;;;;;;0.00;0.00;;;;;;;;;;1748525;28;20221;-79
2023/07/28 03:17:05;;;;;;;0.00;0.00;;;;;;;;;;1747667;28;20202;-79
2023/07/28 03:17:56;;;;;;;0.00;0.00;;;;;;;;;;1748332;28;20221;-79
2023/07/28 03:18:48;;;;;;;0.00;0.00;;;;;;;;;;1747151;28;20526;-79
2023/07/28 03:19:39;;;;;;;0.00;0.00;;;;;;;;;;1747736;28;20198;-79
2023/07/28 03:20:31;;;;;;;0.00;0.00;;;;;;;;;;1744062;28;20226;-79
2023/07/28 03:21:22;;;;;;;0.00;0.00;;;;;;;;;;1746142;28;20187;-79
2023/07/28 03:22:13;;;;;;;0.00;0.00;;;;;;;;;;1746453;28;20202;-79
2023/07/28 03:23:05;;;;;;;0.00;0.00;;;;;;;;;;1746063;28;20202;-79
2023/07/28 03:23:56;;;;;;;0.00;0.00;;;;;;;;;;1746093;28;20343;-79
2023/07/28 03:24:48;;;;;;;0.00;0.00;;;;;;;;;;1745821;28;20593;-79
2023/07/28 03:25:39;;;;;;;0.00;0.00;;;;;;;;;;1745710;28;20234;-79
2023/07/28 03:26:30;;;;;;;0.00;0.00;;;;;;;;;;1747318;28;20552;-79
2023/07/28 03:27:22;;;;;;;0.00;0.00;;;;;;;;;;1747868;28;20527;-79
2023/07/28 03:28:14;;;;;;;0.00;0.00;;;;;;;;;;1747765;28;20222;-80
2023/07/28 03:29:05;;;;;;;0.00;0.00;;;;;;;;;;1747430;28;20312;-79
2023/07/28 03:29:57;;;;;;;0.00;0.00;;;;;;;;;;1747765;28;20299;-79
2023/07/28 03:30:49;;;;;;;0.00;0.00;;;;;;;;;;1745149;28;20265;-80
2023/07/28 03:31:40;;;;;;;0.00;0.00;;;;;;;;;;1747975;28;20730;-79
2023/07/28 03:32:32;;;;;;;0.00;0.00;;;;;;;;;;1748968;28;20525;-79
2023/07/28 03:33:23;;;;;;;0.00;0.00;;;;;;;;;;1749881;28;20651;-79
2023/07/28 03:34:15;;;;;;;0.00;0.00;;;;;;;;;;1747190;28;20210;-79
2023/07/28 03:35:07;;;;;;;0.00;0.00;;;;;;;;;;1749169;28;20206;-79
2023/07/28 03:35:59;;;;;;;0.00;0.00;;;;;;;;;;1745121;28;20230;-78
2023/07/28 03:36:51;;;;;;;0.00;0.00;;;;;;;;;;1747237;28;20804;-78
2023/07/28 03:37:43;;;;;;;0.00;0.00;;;;;;;;;;1747661;28;20206;-78
2023/07/28 03:38:34;;;;;;;0.00;0.00;;;;;;;;;;1747299;28;20241;-78
2023/07/28 03:39:26;;;;;;;0.00;0.00;;;;;;;;;;1748241;28;20256;-78
2023/07/28 03:40:17;;;;;;;0.00;0.00;;;;;;;;;;1746954;28;20604;-79
2023/07/28 03:41:08;;;;;;;0.00;0.00;;;;;;;;;;1741372;28;20253;-79
2023/07/28 03:42:00;;;;;;;0.00;0.00;;;;;;;;;;1744771;28;20352;-79
2023/07/28 03:42:52;;;;;;;0.00;0.00;;;;;;;;;;1747343;28;20337;-80
2023/07/28 03:43:43;;;;;;;0.00;0.00;;;;;;;;;;1742029;28;20543;-80
2023/07/28 03:44:37;;;;;;;0.00;0.00;;;;;;;;;;1747709;28;20222;-80
2023/07/28 03:45:28;;;;;;;0.00;0.00;;;;;;;;;;1741865;28;20241;-80
2023/07/28 03:46:22;;;;;;;0.00;0.00;;;;;;;;;;1746378;28;20216;-80
2023/07/28 03:47:13;;;;;;;0.00;0.00;;;;;;;;;;1745931;28;20477;-80
2023/07/28 03:48:04;;;;;;;0.00;0.00;;;;;;;;;;1746687;28;20554;-80
2023/07/28 03:48:57;;;;;;;0.00;0.00;;;;;;;;;;1746487;28;20535;-80
2023/07/28 03:49:48;;;;;;;0.00;0.00;;;;;;;;;;1746280;28;20539;-80
2023/07/28 03:50:40;;;;;;;0.00;0.00;;;;;;;;;;1745431;28;20979;-80
2023/07/28 03:51:31;;;;;;;0.00;0.00;;;;;;;;;;1747490;28;20293;-80
2023/07/28 03:52:22;;;;;;;0.00;0.00;;;;;;;;;;1747800;28;20232;-80
2023/07/28 03:53:14;;;;;;;0.00;0.00;;;;;;;;;;1747623;28;20222;-79
2023/07/28 03:54:06;;;;;;;0.00;0.00;;;;;;;;;;1745203;28;20810;-79
2023/07/28 03:54:57;;;;;;;0.00;0.00;;;;;;;;;;1747079;28;20237;-79
2023/07/28 03:55:49;;;;;;;0.00;0.00;;;;;;;;;;1745907;28;20613;-78
2023/07/28 03:56:40;;;;;;;0.00;0.00;;;;;;;;;;1747947;28;20206;-78
2023/07/28 03:57:32;;;;;;;0.00;0.00;;;;;;;;;;1749237;28;20615;-78
2023/07/28 03:58:23;;;;;;;0.00;0.00;;;;;;;;;;1748574;28;20662;-78
2023/07/28 03:59:15;;;;;;;0.00;0.00;;;;;;;;;;1749144;28;20198;-78
2023/07/28 04:00:07;;;;;;;0.00;0.00;;;;;;;;;;1748270;28;20202;-78
2023/07/28 04:00:59;;;;;;;0.00;0.00;;;;;;;;;;1746104;28;20237;-78
2023/07/28 04:01:52;;;;;;;0.00;0.00;;;;;;;;;;1748884;28;20240;-78
2023/07/28 04:02:43;;;;;;;0.00;0.00;;;;;;;;;;1749465;28;20298;-79
2023/07/28 04:03:35;;;;;;;0.00;0.00;;;;;;;;;;1749125;28;20222;-79
2023/07/28 04:04:26;;;;;;;0.00;0.00;;;;;;;;;;1748536;28;20238;-79
2023/07/28 04:05:17;;;;;;;0.00;0.00;;;;;;;;;;1746862;28;20213;-78
2023/07/28 04:06:11;;;;;;;0.00;0.00;;;;;;;;;;1741451;28;20223;-78
2023/07/28 04:07:02;;;;;;;0.00;0.00;;;;;;;;;;1745981;28;20259;-78
2023/07/28 04:07:53;;;;;;;0.00;0.00;;;;;;;;;;1746422;28;20918;-78
2023/07/28 04:08:45;;;;;;;0.00;0.00;;;;;;;;;;1746357;28;20295;-78
2023/07/28 04:09:36;;;;;;;0.00;0.00;;;;;;;;;;1741782;28;20206;-78
2023/07/28 04:10:28;;;;;;;0.00;0.00;;;;;;;;;;1744136;28;20484;-78
2023/07/28 04:11:19;;;;;;;0.00;0.00;;;;;;;;;;1746213;28;20597;-78
2023/07/28 04:12:11;;;;;;;0.00;0.00;;;;;;;;;;1745950;28;20206;-78
2023/07/28 04:13:02;;;;;;;0.00;0.00;;;;;;;;;;1746385;28;20325;-79
2023/07/28 04:13:54;;;;;;;0.00;0.00;;;;;;;;;;1746649;28;20214;-79
2023/07/28 04:14:45;;;;;;;0.00;0.00;;;;;;;;;;1746368;28;20792;-79
2023/07/28 04:15:37;;;;;;;0.00;0.00;;;;;;;;;;1744909;28;20324;-80
2023/07/28 04:16:29;;;;;;;0.00;0.00;;;;;;;;;;1746005;28;20701;-80
2023/07/28 04:17:21;;;;;;;0.00;0.00;;;;;;;;;;1746750;28;20655;-80
2023/07/28 04:18:13;;;;;;;0.00;0.00;;;;;;;;;;1742949;28;20289;-80
2023/07/28 04:19:04;;;;;;;0.00;0.00;;;;;;;;;;1746265;28;20202;-80
2023/07/28 04:19:55;;;;;;;0.00;0.00;;;;;;;;;;1746258;28;20202;-80
2023/07/28 04:20:47;;;;;;;0.00;0.00;;;;;;;;;;1746854;28;20780;-79
2023/07/28 04:21:39;;;;;;;0.00;0.00;;;;;;;;;;1749058;28;20233;-80
2023/07/28 04:22:31;;;;;;;0.00;0.00;;;;;;;;;;1749774;28;20202;-79
2023/07/28 04:23:22;;;;;;;0.00;0.00;;;;;;;;;;1749643;28;20225;-79
2023/07/28 04:24:13;;;;;;;0.00;0.00;;;;;;;;;;1749077;28;20268;-80
2023/07/28 04:25:06;;;;;;;0.00;0.00;;;;;;;;;;1748659;28;20247;-80
2023/07/28 04:25:57;;;;;;;0.00;0.00;;;;;;;;;;1744245;28;20348;-79
2023/07/28 04:26:48;;;;;;;0.00;0.00;;;;;;;;;;1745860;28;20220;-79
2023/07/28 04:27:40;;;;;;;0.00;0.00;;;;;;;;;;1744378;28;20621;-79
2023/07/28 04:28:31;;;;;;;0.00;0.00;;;;;;;;;;1745972;28;20762;-79
2023/07/28 04:29:23;;;;;;;0.00;0.00;;;;;;;;;;1746385;28;20336;-80
2023/07/28 04:30:15;;;;;;;0.00;0.00;;;;;;;;;;1745428;28;20457;-79
2023/07/28 04:31:06;;;;;;;0.00;0.00;;;;;;;;;;1748749;28;20244;-79
2023/07/28 04:31:57;;;;;;;0.00;0.00;;;;;;;;;;1749209;28;20202;-79
2023/07/28 04:32:51;;;;;;;0.00;0.00;;;;;;;;;;1748838;28;20715;-79
2023/07/28 04:33:42;;;;;;;0.00;0.00;;;;;;;;;;1748488;28;20229;-79
2023/07/28 04:34:33;;;;;;;0.00;0.00;;;;;;;;;;1748963;28;20240;-79
2023/07/28 04:35:25;;;;;;;0.00;0.00;;;;;;;;;;1746060;28;20281;-79
2023/07/28 04:36:16;;;;;;;0.00;0.00;;;;;;;;;;1749905;28;20301;-79
2023/07/28 04:37:07;;;;;;;0.00;0.00;;;;;;;;;;1748939;28;20198;-79
2023/07/28 04:37:59;;;;;;;0.00;0.00;;;;;;;;;;1749598;28;20213;-79
2023/07/28 04:38:50;;;;;;;0.00;0.00;;;;;;;;;;1748724;28;20226;-79
2023/07/28 04:39:42;;;;;;;0.00;0.00;;;;;;;;;;1748857;28;20333;-79
2023/07/28 04:40:34;;;;;;;0.00;0.00;;;;;;;;;;1745250;28;20241;-79
2023/07/28 04:41:25;;;;;;;0.00;0.00;;;;;;;;;;1745869;28;20744;-79
2023/07/28 04:42:16;;;;;;;0.00;0.00;;;;;;;;;;1746230;28;20202;-80
2023/07/28 04:43:08;;;;;;;0.00;0.00;;;;;;;;;;1748900;28;20252;-80
2023/07/28 04:43:59;;;;;;;0.00;0.00;;;;;;;;;;1746043;28;20301;-79
2023/07/28 04:44:50;;;;;;;0.00;0.00;;;;;;;;;;1745954;28;20290;-80
2023/07/28 04:45:42;;;;;;;0.00;0.00;;;;;;;;;;1746173;28;20268;-80
2023/07/28 04:46:33;;;;;;;0.00;0.00;;;;;;;;;;1748258;28;20708;-80
2023/07/28 04:47:25;;;;;;;0.00;0.00;;;;;;;;;;1748001;28;20202;-80
2023/07/28 04:48:18;;;;;;;0.00;0.00;;;;;;;;;;1748010;28;20259;-80
2023/07/28 04:49:10;;;;;;;0.00;0.00;;;;;;;;;;1748334;28;20689;-78
2023/07/28 04:50:04;;;;;;;0.00;0.00;;;;;;;;;;1747364;28;20574;-79
2023/07/28 04:50:56;;;;;;;0.00;0.00;;;;;;;;;;1743664;28;20248;-78
2023/07/28 04:51:47;;;;;;;0.00;0.00;;;;;;;;;;1745734;28;20317;-78
2023/07/28 04:52:39;;;;;;;0.00;0.00;;;;;;;;;;1745872;28;20629;-79
2023/07/28 04:53:30;;;;;;;0.00;0.00;;;;;;;;;;1745332;28;20293;-79
2023/07/28 04:54:21;;;;;;;0.00;0.00;;;;;;;;;;1745897;28;20289;-79
2023/07/28 04:55:13;;;;;;;0.00;0.00;;;;;;;;;;1744680;28;20233;-80
2023/07/28 04:56:04;;;;;;;0.00;0.00;;;;;;;;;;1745011;28;20325;-79
2023/07/28 04:56:55;;;;;;;0.00;0.00;;;;;;;;;;1745186;28;20581;-79
2023/07/28 04:57:47;;;;;;;0.00;0.00;;;;;;;;;;1745761;28;20259;-79
2023/07/28 04:58:39;;;;;;;0.00;0.00;;;;;;;;;;1744990;28;20679;-79
2023/07/28 04:59:30;;;;;;;0.00;0.00;;;;;;;;;;1745727;28;20199;-78
2023/07/28 05:00:22;;;;;;;0.00;0.00;;;;;;;;;;1743948;28;20712;-78
2023/07/28 05:01:13;;;;;;;0.00;0.00;;;;;;;;;;1745475;28;20305;-78
2023/07/28 05:02:05;;;;;;;0.00;0.00;;;;;;;;;;1745273;28;20636;-78
2023/07/28 05:02:56;;;;;;;0.00;0.00;;;;;;;;;;1745408;28;20680;-78
2023/07/28 05:03:49;;;;;;;0.00;0.00;;;;;;;;;;1745104;28;20229;-78
2023/07/28 05:04:41;;;;;;;0.00;0.00;;;;;;;;;;1745298;28;20257;-78
2023/07/28 05:05:32;;;;;;;0.00;0.00;;;;;;;;;;1743649;28;20305;-79
2023/07/28 05:06:24;;;;;;;0.00;0.00;;;;;;;;;;1741140;28;20594;-78
2023/07/28 05:07:15;;;;;;;0.00;0.00;;;;;;;;;;1745526;28;20294;-78
2023/07/28 05:08:07;;;;;;;0.00;0.00;;;;;;;;;;1745282;28;20528;-78
2023/07/28 05:08:58;;;;;;;0.00;0.00;;;;;;;;;;1745197;28;20669;-78
2023/07/28 05:09:49;;;;;;;0.00;0.00;;;;;;;;;;1745210;28;20202;-78
2023/07/28 05:10:42;;;;;;;0.00;0.00;;;;;;;;;;1744361;28;20230;-79